Time;durP1;ratioP1;P1;durP2;ratioP2;P2;SDS_P1;SDS_P2;PMS_P1;PMS_P2;Temp;Humidity;BMP_temperature;BMP_pressure;BME280_temperature;BME280_humidity;BME280_pressure;Samples;Min_cycle;Max_cycle;Signal;HPM_P1;HPM_P2
2024/01/28 00:01:44;;;;;;;;;;;26.60;99.90;;;;;;5113804;28;19912;-69
2024/01/28 00:04:11;;;;;;;;;;;26.60;99.90;;;;;;5114288;27;19977;-70
2024/01/28 00:06:38;;;;;;;;;;;26.70;99.90;;;;;;5113302;28;19912;-69
2024/01/28 00:09:06;;;;;;;;;;;26.70;99.90;;;;;;5113636;28;19908;-69
2024/01/28 00:11:32;;;;;;;;;;;26.80;99.90;;;;;;5113539;28;20268;-69
2024/01/28 00:13:59;;;;;;;;;;;26.70;99.90;;;;;;5112952;28;20314;-68
2024/01/28 00:16:26;;;;;;;;;;;26.80;99.90;;;;;;5112099;28;19953;-68
2024/01/28 00:18:58;;;;;;;;;;;26.90;99.90;;;;;;5111900;28;19967;-68
2024/01/28 00:21:25;;;;;;;;;;;26.80;99.90;;;;;;5111308;27;19912;-69
2024/01/28 00:23:51;;;;;;;;;;;26.80;99.90;;;;;;5109885;27;19911;-69
2024/01/28 00:26:18;;;;;;;;;;;26.80;99.90;;;;;;5112420;28;19919;-69
2024/01/28 00:28:45;;;;;;;;;;;26.80;99.90;;;;;;5113180;28;19911;-69
2024/01/28 00:31:12;;;;;;;;;;;26.80;99.90;;;;;;5108821;28;19919;-69
2024/01/28 00:33:39;;;;;;;;;;;26.90;99.90;;;;;;5092714;28;19908;-69
2024/01/28 00:36:06;;;;;;;;;;;27.00;99.90;;;;;;5114437;27;19927;-68
2024/01/28 00:38:32;;;;;;;;;;;27.00;99.90;;;;;;5112866;28;20008;-69
2024/01/28 00:41:02;;;;;;;;;;;27.10;99.90;;;;;;5112835;28;20578;-68
2024/01/28 00:43:28;;;;;;;;;;;27.10;99.90;;;;;;5113013;28;20373;-68
2024/01/28 00:45:55;;;;;;;;;;;27.20;99.90;;;;;;5110593;28;19972;-68
2024/01/28 00:48:22;;;;;;;;;;;27.10;99.90;;;;;;5098812;28;19994;-69
2024/01/28 00:50:48;;;;;;;;;;;27.30;99.90;;;;;;5094837;27;20303;-68
2024/01/28 00:53:17;;;;;;;;;;;27.20;99.90;;;;;;5112433;28;19930;-68
2024/01/28 00:55:43;;;;;;;;;;;27.20;99.90;;;;;;5111678;28;19919;-67
2024/01/28 00:58:10;;;;;;;;;;;27.30;99.90;;;;;;5112244;28;20294;-67
2024/01/28 01:00:40;;;;;;;;;;;27.40;99.90;;;;;;5111450;27;20214;-68
2024/01/28 01:03:07;;;;;;;;;;;27.50;99.90;;;;;;5112972;28;20342;-69
2024/01/28 01:05:34;;;;;;;;;;;27.60;99.90;;;;;;5111902;28;19919;-68
2024/01/28 01:08:01;;;;;;;;;;;27.70;99.90;;;;;;5115336;27;19966;-69
2024/01/28 01:10:28;;;;;;;;;;;27.80;99.90;;;;;;5112402;28;20314;-68
2024/01/28 01:12:55;;;;;;;;;;;27.70;99.90;;;;;;5105765;28;19919;-67
2024/01/28 01:15:21;;;;;;;;;;;27.60;99.90;;;;;;5112230;28;19915;-68
2024/01/28 01:17:50;;;;;;;;;;;27.80;99.90;;;;;;5100239;28;19916;-68
2024/01/28 01:20:19;;;;;;;;;;;27.80;99.90;;;;;;5095805;28;19919;-69
2024/01/28 01:22:45;;;;;;;;;;;27.80;99.90;;;;;;5112152;28;19919;-68
2024/01/28 01:25:13;;;;;;;;;;;27.90;99.90;;;;;;5114742;28;19953;-68
2024/01/28 01:27:40;;;;;;;;;;;28.20;99.90;;;;;;5130819;28;19913;-70
2024/01/28 01:30:08;;;;;;;;;;;28.30;99.90;;;;;;5129002;28;19919;-68
2024/01/28 01:32:37;;;;;;;;;;;28.40;99.90;;;;;;5112473;28;19912;-68
2024/01/28 01:35:03;;;;;;;;;;;28.40;99.90;;;;;;5112020;28;19952;-68
2024/01/28 01:37:30;;;;;;;;;;;28.30;99.90;;;;;;5112524;28;19912;-68
2024/01/28 01:39:57;;;;;;;;;;;28.20;99.90;;;;;;5112378;28;19912;-68
2024/01/28 01:42:24;;;;;;;;;;;28.20;99.90;;;;;;5116984;27;19911;-69
2024/01/28 01:44:50;;;;;;;;;;;28.10;99.90;;;;;;5123047;27;19939;-68
2024/01/28 01:47:17;;;;;;;;;;;27.80;99.90;;;;;;5116349;28;19919;-69
2024/01/28 01:49:44;;;;;;;;;;;27.80;99.90;;;;;;5116237;28;19919;-68
2024/01/28 01:52:11;;;;;;;;;;;27.90;99.90;;;;;;5116287;27;19953;-68
2024/01/28 01:54:39;;;;;;;;;;;28.10;99.90;;;;;;5115680;28;19908;-69
2024/01/28 01:57:06;;;;;;;;;;;28.20;99.90;;;;;;5116008;27;19920;-68
2024/01/28 01:59:32;;;;;;;;;;;28.20;99.90;;;;;;5116166;28;19920;-68
2024/01/28 02:02:00;;;;;;;;;;;28.40;99.90;;;;;;5115617;27;19908;-68
2024/01/28 02:04:27;;;;;;;;;;;28.80;99.90;;;;;;5115641;28;19922;-70
2024/01/28 02:06:53;;;;;;;;;;;28.70;99.90;;;;;;5115806;27;19965;-68
2024/01/28 02:09:20;;;;;;;;;;;28.50;99.90;;;;;;5116470;28;19915;-68
2024/01/28 02:11:47;;;;;;;;;;;28.50;99.90;;;;;;5110858;28;20363;-68
2024/01/28 02:14:29;;;;;;;;;;;28.90;99.90;;;;;;5098121;28;19911;-68
2024/01/28 02:16:56;;;;;;;;;;;28.90;99.90;;;;;;5116946;27;19907;-69
2024/01/28 02:19:22;;;;;;;;;;;28.90;99.90;;;;;;5115634;28;19934;-68
2024/01/28 02:21:49;;;;;;;;;;;28.70;99.90;;;;;;5130032;27;19907;-69
2024/01/28 02:24:16;;;;;;;;;;;28.80;99.90;;;;;;5132460;27;19916;-70
2024/01/28 02:26:42;;;;;;;;;;;28.70;99.90;;;;;;5115512;27;19929;-70
2024/01/28 02:29:09;;;;;;;;;;;28.50;99.90;;;;;;5115497;28;19912;-68
2024/01/28 02:31:35;;;;;;;;;;;28.30;99.90;;;;;;5115164;27;19904;-70
2024/01/28 02:34:02;;;;;;;;;;;28.00;99.90;;;;;;5115576;27;20360;-69
2024/01/28 02:36:29;;;;;;;;;;;27.90;99.90;;;;;;5115138;28;19908;-69
2024/01/28 02:38:56;;;;;;;;;;;27.90;99.90;;;;;;5115539;28;19971;-70
2024/01/28 02:41:23;;;;;;;;;;;28.10;99.90;;;;;;5115673;27;19998;-69
2024/01/28 02:43:49;;;;;;;;;;;28.60;99.90;;;;;;5114510;28;19912;-68
2024/01/28 02:46:16;;;;;;;;;;;29.00;99.90;;;;;;5114522;28;19964;-68
2024/01/28 02:48:43;;;;;;;;;;;29.40;99.90;;;;;;5115221;27;20320;-68
2024/01/28 02:51:10;;;;;;;;;;;29.40;99.90;;;;;;5113478;28;19907;-69
2024/01/28 02:53:37;;;;;;;;;;;29.40;99.90;;;;;;5113353;28;20272;-69
2024/01/28 02:56:04;;;;;;;;;;;29.40;99.90;;;;;;5121079;27;20364;-69
2024/01/28 02:58:31;;;;;;;;;;;29.60;99.90;;;;;;5126617;27;19938;-69
2024/01/28 03:00:58;;;;;;;;;;;29.70;99.90;;;;;;5106408;27;19916;-70
2024/01/28 03:03:24;;;;;;;;;;;29.50;99.90;;;;;;5112954;28;19958;-69
2024/01/28 03:05:51;;;;;;;;;;;29.70;99.90;;;;;;5112622;27;19934;-68
2024/01/28 03:08:17;;;;;;;;;;;30.10;99.70;;;;;;5111441;28;19918;-67
2024/01/28 03:10:44;;;;;;;;;;;30.30;99.10;;;;;;5108030;28;19925;-71
2024/01/28 03:13:11;;;;;;;;;;;30.60;98.90;;;;;;5111449;28;20015;-70
2024/01/28 03:15:37;;;;;;;;;;;30.90;97.80;;;;;;5114278;27;19908;-67
2024/01/28 03:18:04;;;;;;;;;;;30.50;98.00;;;;;;5111272;28;19919;-67
2024/01/28 03:20:32;;;;;;;;;;;30.60;98.30;;;;;;5110779;28;19916;-67
2024/01/28 03:22:58;;;;;;;;;;;31.10;97.50;;;;;;5107305;28;19951;-68
2024/01/28 03:25:25;;;;;;;;;;;32.00;96.50;;;;;;5108576;28;19918;-68
2024/01/28 03:27:53;;;;;;;;;;;32.20;95.70;;;;;;5107866;27;19923;-68
2024/01/28 03:30:19;;;;;;;;;;;32.60;95.50;;;;;;5108282;28;19908;-68
2024/01/28 03:32:46;;;;;;;;;;;33.30;94.10;;;;;;5111375;28;20007;-67
2024/01/28 03:35:13;;;;;;;;;;;33.90;93.30;;;;;;5112409;28;19908;-69
2024/01/28 03:37:39;;;;;;;;;;;33.70;92.90;;;;;;5107196;27;19911;-69
2024/01/28 03:40:06;;;;;;;;;;;33.30;93.70;;;;;;5105744;28;20034;-68
2024/01/28 03:42:33;;;;;;;;;;;33.20;93.50;;;;;;5112856;27;20264;-68
2024/01/28 03:44:59;;;;;;;;;;;33.70;92.70;;;;;;5113272;28;19912;-67
2024/01/28 03:47:26;;;;;;;;;;;33.20;92.60;;;;;;5110425;28;19915;-71
2024/01/28 03:49:53;;;;;;;;;;;32.70;93.70;;;;;;5113524;28;19908;-66
2024/01/28 03:52:19;;;;;;;;;;;32.30;94.80;;;;;;5113778;27;19912;-67
2024/01/28 03:54:46;;;;;;;;;;;31.80;95.20;;;;;;5112492;28;19915;-68
2024/01/28 03:57:12;;;;;;;;;;;30.90;96.00;;;;;;5112904;27;19916;-67
2024/01/28 03:59:39;;;;;;;;;;;30.30;96.90;;;;;;5113135;28;19923;-67
2024/01/28 04:02:07;;;;;;;;;;;29.60;97.50;;;;;;5112893;28;19916;-68
2024/01/28 04:04:34;;;;;;;;;;;28.90;98.90;;;;;;5112447;28;19912;-67
2024/01/28 04:07:01;;;;;;;;;;;28.70;99.40;;;;;;5113092;27;19912;-67
2024/01/28 04:09:27;;;;;;;;;;;28.60;99.80;;;;;;5110213;28;19943;-68
2024/01/28 04:11:54;;;;;;;;;;;28.40;99.90;;;;;;5113038;28;19912;-68
2024/01/28 04:14:21;;;;;;;;;;;28.60;99.90;;;;;;5102356;28;19957;-68
2024/01/28 04:16:48;;;;;;;;;;;29.20;99.80;;;;;;5110515;27;19918;-70
2024/01/28 04:19:14;;;;;;;;;;;29.90;97.90;;;;;;5113063;28;19945;-68
2024/01/28 04:21:41;;;;;;;;;;;30.00;97.60;;;;;;5113232;28;19908;-70
2024/01/28 04:24:08;;;;;;;;;;;29.90;98.00;;;;;;5128702;27;19912;-70
2024/01/28 04:26:34;;;;;;;;;;;29.50;98.60;;;;;;5102110;27;19953;-68
2024/01/28 04:29:01;;;;;;;;;;;29.00;98.70;;;;;;5108622;27;19916;-68
2024/01/28 04:31:29;;;;;;;;;;;28.70;99.20;;;;;;5100270;28;19966;-69
2024/01/28 04:33:57;;;;;;;;;;;28.50;99.90;;;;;;5113376;27;19918;-68
2024/01/28 04:36:26;;;;;;;;;;;28.50;99.90;;;;;;5133440;27;19907;-69
2024/01/28 04:38:52;;;;;;;;;;;28.50;99.90;;;;;;5133807;27;19922;-69
2024/01/28 04:41:20;;;;;;;;;;;28.40;99.90;;;;;;5120018;27;19961;-69
2024/01/28 04:43:46;;;;;;;;;;;28.50;99.90;;;;;;5112272;28;19911;-68
2024/01/28 04:46:19;;;;;;;;;;;28.30;99.90;;;;;;5095137;28;19912;-69
2024/01/28 04:48:46;;;;;;;;;;;28.10;99.90;;;;;;5112829;28;19912;-68
2024/01/28 04:51:13;;;;;;;;;;;28.00;99.90;;;;;;5112738;28;20298;-71
2024/01/28 04:53:39;;;;;;;;;;;28.00;99.90;;;;;;5112688;28;19908;-71
2024/01/28 04:56:06;;;;;;;;;;;28.00;99.90;;;;;;5097524;28;19923;-69
2024/01/28 04:58:33;;;;;;;;;;;28.20;99.90;;;;;;5093314;27;20014;-68
2024/01/28 05:00:59;;;;;;;;;;;28.20;99.90;;;;;;5112321;28;19908;-67
2024/01/28 05:03:26;;;;;;;;;;;28.10;99.90;;;;;;5111660;27;19912;-67
2024/01/28 05:05:53;;;;;;;;;;;28.10;99.90;;;;;;5112307;28;19908;-67
2024/01/28 05:08:19;;;;;;;;;;;28.10;99.90;;;;;;5112554;28;19912;-68
2024/01/28 05:10:46;;;;;;;;;;;28.20;99.90;;;;;;5112675;27;19941;-69
2024/01/28 05:13:12;;;;;;;;;;;28.30;99.90;;;;;;5112011;28;19908;-69
2024/01/28 05:15:39;;;;;;;;;;;29.10;99.90;;;;;;5112019;28;19957;-69
2024/01/28 05:18:06;;;;;;;;;;;30.20;98.30;;;;;;5093237;28;19916;-69
2024/01/28 05:20:33;;;;;;;;;;;31.20;97.00;;;;;;5112143;28;20019;-69
2024/01/28 05:23:00;;;;;;;;;;;31.90;96.30;;;;;;5112210;28;19930;-69
2024/01/28 05:25:26;;;;;;;;;;;32.50;95.60;;;;;;5112345;28;19915;-69
2024/01/28 05:27:54;;;;;;;;;;;33.50;94.40;;;;;;5112444;28;19912;-68
2024/01/28 05:30:21;;;;;;;;;;;34.30;93.10;;;;;;5112341;28;19981;-67
2024/01/28 05:32:48;;;;;;;;;;;34.90;92.80;;;;;;5112511;28;19911;-68
2024/01/28 05:35:14;;;;;;;;;;;34.80;92.20;;;;;;5116713;28;19911;-65
2024/01/28 05:37:41;;;;;;;;;;;33.90;92.10;;;;;;5101209;28;19912;-67
2024/01/28 05:40:10;;;;;;;;;;;33.10;92.90;;;;;;5104460;28;20364;-68
2024/01/28 05:42:37;;;;;;;;;;;32.10;93.60;;;;;;5107071;28;19908;-67
2024/01/28 05:45:04;;;;;;;;;;;31.40;94.60;;;;;;5103242;28;19908;-68
2024/01/28 05:47:31;;;;;;;;;;;31.00;95.50;;;;;;5111828;28;19908;-69
2024/01/28 05:49:57;;;;;;;;;;;30.90;95.70;;;;;;5111819;28;20249;-68
2024/01/28 05:52:24;;;;;;;;;;;30.80;95.90;;;;;;5110812;28;20391;-68
2024/01/28 05:54:51;;;;;;;;;;;31.40;95.70;;;;;;5112732;28;19912;-70
2024/01/28 05:57:18;;;;;;;;;;;32.40;95.30;;;;;;5112917;28;19919;-69
2024/01/28 05:59:44;;;;;;;;;;;34.10;93.20;;;;;;5112733;28;19963;-68
2024/01/28 06:02:11;;;;;;;;;;;35.70;91.10;;;;;;5092662;28;19930;-69
2024/01/28 06:04:38;;;;;;;;;;;36.60;90.10;;;;;;5095418;28;20486;-68
2024/01/28 06:07:05;;;;;;;;;;;36.20;90.00;;;;;;5091867;28;20265;-68
2024/01/28 06:09:31;;;;;;;;;;;36.20;89.10;;;;;;5101909;28;19930;-68
2024/01/28 06:11:58;;;;;;;;;;;35.30;90.10;;;;;;5110680;28;19918;-67
2024/01/28 06:14:25;;;;;;;;;;;34.50;90.50;;;;;;5110119;28;20618;-70
2024/01/28 06:16:52;;;;;;;;;;;33.50;91.60;;;;;;5111995;28;20359;-69
2024/01/28 06:19:19;;;;;;;;;;;32.50;92.50;;;;;;5109762;28;19922;-69
2024/01/28 06:21:45;;;;;;;;;;;31.60;93.60;;;;;;5111327;28;19922;-69
2024/01/28 06:24:12;;;;;;;;;;;30.90;94.60;;;;;;5111117;28;20533;-69
2024/01/28 06:26:39;;;;;;;;;;;30.30;95.70;;;;;;5110878;28;19916;-68
2024/01/28 06:29:06;;;;;;;;;;;29.80;96.00;;;;;;5112697;27;19991;-69
2024/01/28 06:31:32;;;;;;;;;;;29.40;96.60;;;;;;5117047;27;19908;-68
2024/01/28 06:33:59;;;;;;;;;;;28.80;97.50;;;;;;5114530;27;20476;-70
2024/01/28 06:36:26;;;;;;;;;;;28.90;97.50;;;;;;5113179;27;19912;-68
2024/01/28 06:38:54;;;;;;;;;;;29.10;97.60;;;;;;5113567;28;19963;-71
2024/01/28 06:41:21;;;;;;;;;;;29.00;97.60;;;;;;5114487;27;19938;-68
2024/01/28 06:43:47;;;;;;;;;;;29.20;97.90;;;;;;5113107;28;19908;-68
2024/01/28 06:46:16;;;;;;;;;;;29.50;97.70;;;;;;5114971;28;19912;-69
2024/01/28 06:48:42;;;;;;;;;;;29.90;97.00;;;;;;5114849;28;19976;-69
2024/01/28 06:51:09;;;;;;;;;;;30.10;97.30;;;;;;5115767;27;20283;-71
2024/01/28 06:53:36;;;;;;;;;;;30.10;95.90;;;;;;5114488;27;20430;-67
2024/01/28 06:56:03;;;;;;;;;;;29.90;96.40;;;;;;5113737;27;20271;-68
2024/01/28 06:58:30;;;;;;;;;;;29.60;96.50;;;;;;5111819;27;19923;-69
2024/01/28 07:00:56;;;;;;;;;;;29.30;97.20;;;;;;5114122;28;20324;-68
2024/01/28 07:03:23;;;;;;;;;;;29.10;97.30;;;;;;5114029;28;19907;-69
2024/01/28 07:05:50;;;;;;;;;;;28.80;97.50;;;;;;5091276;28;19916;-68
2024/01/28 07:08:17;;;;;;;;;;;28.70;98.00;;;;;;5111475;28;19911;-69
2024/01/28 07:10:43;;;;;;;;;;;28.40;98.40;;;;;;5111040;27;20018;-67
2024/01/28 07:13:10;;;;;;;;;;;28.10;98.60;;;;;;5114513;28;20446;-67
2024/01/28 07:15:37;;;;;;;;;;;27.60;99.00;;;;;;5117896;27;19965;-68
2024/01/28 07:18:03;;;;;;;;;;;27.40;99.70;;;;;;5131159;27;19918;-69
2024/01/28 07:20:31;;;;;;;;;;;27.20;99.90;;;;;;5096567;28;19916;-67
2024/01/28 07:22:57;;;;;;;;;;;27.20;99.90;;;;;;5124475;27;19911;-67
2024/01/28 07:25:24;;;;;;;;;;;27.10;99.90;;;;;;5094039;28;19979;-67
2024/01/28 07:27:52;;;;;;;;;;;27.10;99.90;;;;;;5094385;28;20284;-67
2024/01/28 07:30:18;;;;;;;;;;;27.10;99.90;;;;;;5092860;28;20441;-67
2024/01/28 07:32:45;;;;;;;;;;;27.20;99.90;;;;;;5093284;28;19935;-67
2024/01/28 07:35:11;;;;;;;;;;;27.20;99.90;;;;;;5103865;27;19955;-67
2024/01/28 07:37:38;;;;;;;;;;;27.30;99.90;;;;;;5133340;27;19914;-67
2024/01/28 07:40:05;;;;;;;;;;;27.20;99.90;;;;;;5129157;27;19961;-67
2024/01/28 07:42:32;;;;;;;;;;;27.20;99.90;;;;;;5111526;28;19912;-68
2024/01/28 07:44:58;;;;;;;;;;;26.90;99.90;;;;;;5108846;27;20030;-65
2024/01/28 07:47:25;;;;;;;;;;;26.80;99.90;;;;;;5107096;28;20327;-66
2024/01/28 07:49:52;;;;;;;;;;;26.70;99.90;;;;;;5114676;28;19914;-67
2024/01/28 07:52:19;;;;;;;;;;;26.60;99.90;;;;;;5114723;28;20296;-66
2024/01/28 07:54:45;;;;;;;;;;;26.60;99.90;;;;;;5114455;28;19914;-67
2024/01/28 07:57:12;;;;;;;;;;;26.60;99.90;;;;;;5114541;28;20372;-68
2024/01/28 07:59:39;;;;;;;;;;;26.50;99.90;;;;;;5114517;28;19960;-68
2024/01/28 08:02:05;;;;;;;;;;;26.50;99.90;;;;;;5116123;27;20364;-69
2024/01/28 08:04:32;;;;;;;;;;;26.40;99.90;;;;;;5134664;27;19913;-66
2024/01/28 08:06:59;;;;;;;;;;;26.30;99.90;;;;;;5122948;27;19922;-67
2024/01/28 08:09:27;;;;;;;;;;;26.20;99.90;;;;;;5093979;28;19915;-67
2024/01/28 08:11:54;;;;;;;;;;;26.00;99.90;;;;;;5094120;28;19915;-67
2024/01/28 08:14:26;;;;;;;;;;;25.80;99.90;;;;;;5097690;28;20402;-67
2024/01/28 08:16:54;;;;;;;;;;;25.80;99.90;;;;;;5103167;28;19959;-68
2024/01/28 08:19:20;;;;;;;;;;;25.60;99.90;;;;;;5108233;28;19919;-66
2024/01/28 08:21:48;;;;;;;;;;;25.50;99.90;;;;;;5114341;28;19914;-66
2024/01/28 08:24:14;;;;;;;;;;;25.50;99.90;;;;;;5114028;28;20360;-68
2024/01/28 08:26:41;;;;;;;;;;;25.40;99.90;;;;;;5093508;28;19908;-66
2024/01/28 08:29:08;;;;;;;;;;;25.50;99.90;;;;;;5123185;27;19998;-66
2024/01/28 08:31:34;;;;;;;;;;;25.50;99.90;;;;;;5103734;27;20345;-66
2024/01/28 08:34:01;;;;;;;;;;;25.50;99.90;;;;;;5112926;28;19994;-67
2024/01/28 08:36:27;;;;;;;;;;;25.50;99.90;;;;;;5111364;28;20006;-67
2024/01/28 08:38:54;;;;;;;;;;;25.50;99.90;;;;;;5111391;28;19922;-66
2024/01/28 08:41:21;;;;;;;;;;;25.40;99.90;;;;;;5113545;28;19926;-66
2024/01/28 08:43:48;;;;;;;;;;;25.30;99.90;;;;;;5120110;27;19912;-68
2024/01/28 08:46:16;;;;;;;;;;;25.30;99.90;;;;;;5133185;27;19915;-67
2024/01/28 08:48:42;;;;;;;;;;;25.30;99.90;;;;;;5133498;27;20366;-66
2024/01/28 08:51:09;;;;;;;;;;;25.10;99.90;;;;;;5133010;27;19907;-67
2024/01/28 08:53:36;;;;;;;;;;;25.10;99.90;;;;;;5133750;27;19908;-67
2024/01/28 08:56:03;;;;;;;;;;;25.10;99.90;;;;;;5131385;27;19931;-67
2024/01/28 08:58:30;;;;;;;;;;;25.00;99.90;;;;;;5133400;27;19980;-67
2024/01/28 09:00:57;;;;;;;;;;;24.90;99.90;;;;;;5114784;27;20323;-67
2024/01/28 09:03:24;;;;;;;;;;;24.80;99.90;;;;;;5133888;27;19910;-66
2024/01/28 09:05:51;;;;;;;;;;;24.60;99.90;;;;;;5134057;27;19911;-67
2024/01/28 09:08:17;;;;;;;;;;;24.60;99.90;;;;;;5134287;27;19915;-67
2024/01/28 09:10:44;;;;;;;;;;;24.60;99.90;;;;;;5134140;27;19907;-67
2024/01/28 09:13:10;;;;;;;;;;;24.50;99.90;;;;;;5133926;27;19992;-66
2024/01/28 09:15:37;;;;;;;;;;;24.50;99.90;;;;;;5133051;27;20347;-67
2024/01/28 09:18:04;;;;;;;;;;;24.40;99.90;;;;;;5133810;27;19955;-67
2024/01/28 09:20:30;;;;;;;;;;;24.50;99.90;;;;;;5124115;27;19994;-67
2024/01/28 09:22:57;;;;;;;;;;;24.50;99.90;;;;;;5112958;28;19908;-67
2024/01/28 09:25:25;;;;;;;;;;;24.50;99.90;;;;;;5113214;28;19908;-66
2024/01/28 09:27:52;;;;;;;;;;;24.50;99.90;;;;;;5113194;28;20383;-66
2024/01/28 09:30:18;;;;;;;;;;;24.50;99.90;;;;;;5112844;28;20314;-66
2024/01/28 09:32:47;;;;;;;;;;;24.50;99.90;;;;;;5112622;28;20433;-67
2024/01/28 09:35:13;;;;;;;;;;;24.60;99.90;;;;;;5112867;28;19939;-66
2024/01/28 09:37:40;;;;;;;;;;;24.60;99.90;;;;;;5112968;28;19908;-66
2024/01/28 09:40:07;;;;;;;;;;;24.60;99.90;;;;;;5113055;28;20383;-67
2024/01/28 09:42:43;;;;;;;;;;;24.50;99.90;;;;;;5115138;28;19912;-67
2024/01/28 09:45:10;;;;;;;;;;;24.50;99.90;;;;;;5112811;28;19911;-66
2024/01/28 09:47:38;;;;;;;;;;;24.50;99.90;;;;;;5113034;28;19932;-68
2024/01/28 09:50:04;;;;;;;;;;;24.50;99.90;;;;;;5113934;28;19931;-69
2024/01/28 09:52:31;;;;;;;;;;;24.50;99.90;;;;;;5133071;28;19911;-67
2024/01/28 09:54:58;;;;;;;;;;;24.50;99.90;;;;;;5133223;28;19981;-68
2024/01/28 09:57:25;;;;;;;;;;;24.30;99.90;;;;;;5133782;28;19915;-66
2024/01/28 09:59:52;;;;;;;;;;;24.30;99.90;;;;;;5133505;28;20318;-67
2024/01/28 10:02:20;;;;;;;;;;;24.30;99.90;;;;;;5133331;27;19907;-67
2024/01/28 10:04:46;;;;;;;;;;;24.20;99.90;;;;;;5137223;27;19964;-67
2024/01/28 10:07:15;;;;;;;;;;;24.20;99.90;;;;;;5127043;27;19912;-65
2024/01/28 10:09:41;;;;;;;;;;;24.20;99.90;;;;;;5116963;28;19908;-66
2024/01/28 10:12:09;;;;;;;;;;;24.00;99.90;;;;;;5116310;28;19915;-65
2024/01/28 10:14:36;;;;;;;;;;;24.00;99.90;;;;;;5116360;28;19960;-67
2024/01/28 10:17:03;;;;;;;;;;;24.00;99.90;;;;;;5116554;28;19908;-66
2024/01/28 10:19:30;;;;;;;;;;;24.00;99.90;;;;;;5116589;28;19916;-67
2024/01/28 10:21:58;;;;;;;;;;;24.00;99.90;;;;;;5116691;28;19908;-68
2024/01/28 10:24:25;;;;;;;;;;;24.00;99.90;;;;;;5116613;28;19960;-66
2024/01/28 10:26:51;;;;;;;;;;;23.90;99.90;;;;;;5116544;28;19904;-67
2024/01/28 10:29:20;;;;;;;;;;;23.80;99.90;;;;;;5116675;28;19965;-66
2024/01/28 10:31:47;;;;;;;;;;;23.80;99.90;;;;;;5128898;27;19916;-67
2024/01/28 10:34:13;;;;;;;;;;;23.80;99.90;;;;;;5136764;27;19907;-66
2024/01/28 10:36:44;;;;;;;;;;;23.80;99.90;;;;;;5124010;27;19916;-67
2024/01/28 10:39:13;;;;;;;;;;;23.80;99.90;;;;;;5112612;28;20286;-67
2024/01/28 10:41:42;;;;;;;;;;;23.70;99.90;;;;;;5115463;28;20293;-66
2024/01/28 10:44:09;;;;;;;;;;;23.70;99.90;;;;;;5110218;28;19918;-67
2024/01/28 10:46:38;;;;;;;;;;;23.80;99.90;;;;;;5096969;28;20360;-66
2024/01/28 10:49:09;;;;;;;;;;;23.80;99.90;;;;;;5112743;28;20323;-68
2024/01/28 10:51:39;;;;;;;;;;;23.80;99.90;;;;;;5115130;28;19915;-66
2024/01/28 10:54:07;;;;;;;;;;;23.70;99.90;;;;;;5113081;28;19908;-67
2024/01/28 10:56:36;;;;;;;;;;;23.70;99.90;;;;;;5115166;28;19998;-67
2024/01/28 10:59:02;;;;;;;;;;;23.70;99.90;;;;;;5114802;28;19920;-67
2024/01/28 11:01:29;;;;;;;;;;;23.70;99.90;;;;;;5103584;28;20322;-69
2024/01/28 11:03:57;;;;;;;;;;;23.70;99.90;;;;;;5109806;28;19950;-67
2024/01/28 11:06:27;;;;;;;;;;;23.70;99.90;;;;;;5115211;28;20420;-66
2024/01/28 11:08:57;;;;;;;;;;;23.70;99.90;;;;;;5114657;28;19907;-67
2024/01/28 11:11:23;;;;;;;;;;;23.70;99.90;;;;;;5102419;28;19908;-68
2024/01/28 11:13:50;;;;;;;;;;;23.70;99.90;;;;;;5094265;28;20001;-68
2024/01/28 11:16:19;;;;;;;;;;;23.80;99.90;;;;;;5093887;28;19912;-68
2024/01/28 11:18:55;;;;;;;;;;;23.80;99.90;;;;;;5094928;28;19916;-66
2024/01/28 11:21:23;;;;;;;;;;;23.80;99.90;;;;;;5094753;28;19908;-67
2024/01/28 11:23:49;;;;;;;;;;;23.90;99.90;;;;;;5094766;28;19908;-68
2024/01/28 11:26:17;;;;;;;;;;;23.90;99.90;;;;;;5094885;28;19908;-67
2024/01/28 11:28:50;;;;;;;;;;;24.00;99.90;;;;;;5094355;28;20003;-67
2024/01/28 11:31:38;;;;;;;;;;;24.00;99.90;;;;;;5094704;28;20005;-67
2024/01/28 11:34:22;;;;;;;;;;;24.00;99.90;;;;;;5094599;28;20506;-66
2024/01/28 11:36:52;;;;;;;;;;;24.00;99.90;;;;;;5094626;28;19912;-66
2024/01/28 11:39:40;;;;;;;;;;;24.10;99.90;;;;;;5094557;28;20360;-68
2024/01/28 11:42:07;;;;;;;;;;;24.10;99.90;;;;;;5086670;28;19909;-66
2024/01/28 11:44:33;;;;;;;;;;;24.20;99.90;;;;;;5094178;28;19908;-66
2024/01/28 11:47:02;;;;;;;;;;;24.10;99.90;;;;;;5094507;28;19908;-68
2024/01/28 11:49:29;;;;;;;;;;;24.20;99.90;;;;;;5094424;28;19948;-68
2024/01/28 11:51:55;;;;;;;;;;;24.20;99.90;;;;;;5094399;28;20249;-68
2024/01/28 11:54:22;;;;;;;;;;;24.20;99.90;;;;;;5094140;28;19908;-67
2024/01/28 11:56:49;;;;;;;;;;;24.20;99.90;;;;;;5093743;28;20260;-67
2024/01/28 11:59:15;;;;;;;;;;;24.20;99.90;;;;;;5092913;28;19970;-67
2024/01/28 12:01:42;;;;;;;;;;;24.20;99.90;;;;;;5093786;28;19908;-66
2024/01/28 12:04:09;;;;;;;;;;;24.20;99.90;;;;;;5094184;28;19908;-69
2024/01/28 12:06:36;;;;;;;;;;;24.20;99.90;;;;;;5099944;28;19980;-67
2024/01/28 12:09:03;;;;;;;;;;;24.10;99.90;;;;;;5114695;28;19908;-67
2024/01/28 12:11:30;;;;;;;;;;;24.10;99.90;;;;;;5114696;28;19995;-67
2024/01/28 12:13:57;;;;;;;;;;;24.10;99.90;;;;;;5114618;28;19912;-66
2024/01/28 12:16:24;;;;;;;;;;;24.00;99.90;;;;;;5114137;28;19914;-66
2024/01/28 12:18:54;;;;;;;;;;;24.10;99.90;;;;;;5114231;28;19934;-67
2024/01/28 12:21:20;;;;;;;;;;;24.10;99.90;;;;;;5114014;28;19941;-67
2024/01/28 12:23:47;;;;;;;;;;;24.10;99.90;;;;;;5114011;28;19912;-66
2024/01/28 12:26:15;;;;;;;;;;;24.10;99.90;;;;;;5097617;28;19912;-68
2024/01/28 12:28:43;;;;;;;;;;;24.00;99.90;;;;;;5093500;28;20001;-66
2024/01/28 12:31:09;;;;;;;;;;;24.00;99.90;;;;;;5093519;28;19959;-67
2024/01/28 12:33:36;;;;;;;;;;;24.10;99.90;;;;;;5093697;28;19935;-67
2024/01/28 12:36:03;;;;;;;;;;;24.10;99.90;;;;;;5093464;28;20314;-67
2024/01/28 12:38:29;;;;;;;;;;;24.10;99.90;;;;;;5093422;28;19958;-66
2024/01/28 12:40:56;;;;;;;;;;;24.10;99.90;;;;;;5093678;28;20351;-67
2024/01/28 12:43:23;;;;;;;;;;;24.00;99.90;;;;;;5093517;28;19908;-66
2024/01/28 12:45:51;;;;;;;;;;;24.00;99.90;;;;;;5093351;28;19908;-66
2024/01/28 12:48:17;;;;;;;;;;;24.10;99.90;;;;;;5093639;28;19908;-66
2024/01/28 12:50:44;;;;;;;;;;;24.10;99.90;;;;;;5093534;28;19912;-68
2024/01/28 12:53:11;;;;;;;;;;;24.20;99.90;;;;;;5093337;28;19919;-66
2024/01/28 12:55:37;;;;;;;;;;;24.10;99.90;;;;;;5093010;28;20046;-67
2024/01/28 12:58:04;;;;;;;;;;;24.20;99.90;;;;;;5093421;28;20061;-67
2024/01/28 13:00:30;;;;;;;;;;;24.20;99.90;;;;;;5093408;28;19995;-66
2024/01/28 13:02:57;;;;;;;;;;;24.20;99.90;;;;;;5093046;28;20387;-66
2024/01/28 13:05:24;;;;;;;;;;;24.10;99.90;;;;;;5093157;28;19908;-67
2024/01/28 13:07:51;;;;;;;;;;;24.20;99.90;;;;;;5109128;28;20390;-67
2024/01/28 13:10:17;;;;;;;;;;;24.20;99.90;;;;;;5113431;28;19912;-66
2024/01/28 13:12:44;;;;;;;;;;;24.20;99.90;;;;;;5113434;28;19914;-67
2024/01/28 13:15:11;;;;;;;;;;;24.20;99.90;;;;;;5113382;28;19943;-66
2024/01/28 13:17:41;;;;;;;;;;;24.20;99.90;;;;;;5113383;28;19961;-65
2024/01/28 13:20:09;;;;;;;;;;;24.20;99.90;;;;;;5094705;28;20011;-66
2024/01/28 13:22:42;;;;;;;;;;;24.20;99.90;;;;;;5113352;28;19908;-66
2024/01/28 13:25:12;;;;;;;;;;;24.20;99.90;;;;;;5113050;28;19933;-68
2024/01/28 13:27:39;;;;;;;;;;;24.20;99.90;;;;;;5113094;28;19911;-68
2024/01/28 13:30:06;;;;;;;;;;;24.20;99.90;;;;;;5113038;28;19915;-68
2024/01/28 13:32:34;;;;;;;;;;;24.20;99.90;;;;;;5113083;28;20271;-68
2024/01/28 13:35:01;;;;;;;;;;;24.20;99.90;;;;;;5112880;28;19908;-65
2024/01/28 13:37:28;;;;;;;;;;;24.10;99.90;;;;;;5112914;28;19915;-67
2024/01/28 13:39:55;;;;;;;;;;;24.10;99.90;;;;;;5117158;28;19915;-66
2024/01/28 13:42:21;;;;;;;;;;;24.10;99.90;;;;;;5099034;28;19969;-66
2024/01/28 13:44:50;;;;;;;;;;;24.10;99.90;;;;;;5117308;28;19908;-67
2024/01/28 13:47:17;;;;;;;;;;;24.20;99.90;;;;;;5117314;28;19908;-68
2024/01/28 13:49:43;;;;;;;;;;;24.10;99.90;;;;;;5117115;28;19960;-67
2024/01/28 13:52:11;;;;;;;;;;;24.10;99.90;;;;;;5117154;28;19911;-67
2024/01/28 13:54:37;;;;;;;;;;;24.00;99.90;;;;;;5116904;28;19993;-67
2024/01/28 13:57:04;;;;;;;;;;;24.00;99.90;;;;;;5116659;28;19928;-67
2024/01/28 13:59:31;;;;;;;;;;;24.00;99.90;;;;;;5116746;28;20326;-67
2024/01/28 14:02:00;;;;;;;;;;;24.00;99.90;;;;;;5117079;28;20344;-66
2024/01/28 14:04:27;;;;;;;;;;;24.00;99.90;;;;;;5117043;28;19912;-68
2024/01/28 14:06:53;;;;;;;;;;;24.00;99.90;;;;;;5117105;28;20356;-67
2024/01/28 14:09:20;;;;;;;;;;;24.00;99.90;;;;;;5116987;28;20554;-66
2024/01/28 14:11:46;;;;;;;;;;;23.90;99.90;;;;;;5117007;28;19915;-67
2024/01/28 14:14:13;;;;;;;;;;;23.90;99.90;;;;;;5116755;28;19969;-68
2024/01/28 14:16:40;;;;;;;;;;;23.90;99.90;;;;;;5107713;28;19908;-68